松山空港の過去48時間の天気

松山空港 (Matsuyama)

現在時刻: 9/23 02:02 JST (9/22 17:02 UTC) 以下の時間は現地時間です。

過去48時間のMETAR気象情報
時間 風向 風速(m/s) 視程 気温(℃) 湿度(%) 気圧(hPa) 天気現象
22 21:00 南南東 2 10km以上 24 65 1012
22 20:00 不定 1 10km以上 25 65 1011 周辺でしゅう雨
22 19:00 不定 1 10km以上 25 61 1011
22 18:00 東北東 4 10km以上 25 61 1011
22 17:00 北北東 4 10km以上 26 58 1011
22 16:00 7 10km以上 26 61 1012
22 15:00 8 10km以上 27 58 1012
22 14:00 9 10km以上 27 62 1011
22 13:00 8 10km以上 28 51 1012
22 12:00 6 10km以上 28 51 1013
22 11:00 5 10km以上 27 51 1013
22 10:00 北西 3 10km以上 25 61 1014
22 09:00 西北西 3 10km以上 24 65 1014
22 08:00 南東 2 10km以上 22 69 1014
22 07:00 南東 2 10km以上 20 78 1015
22 06:10 東南東 2 10km以上 19 83 1015
21 21:00 南東 3 10km以上 21 69 1014
21 20:00 北北東 2 10km以上 23 57 1014
21 19:00 東南東 4 10km以上 23 57 1013
21 18:00 3 10km以上 24 50 1013
21 17:00 3 10km以上 26 34 1013
21 16:00 北北東 6 10km以上 26 34 1013
21 15:00 7 10km以上 26 42 1013
21 14:00 8 10km以上 26 48 1014
21 13:00 10 10km以上 26 54 1014
21 12:00 8 10km以上 26 54 1014
21 11:00 7 10km以上 25 54 1014
21 10:00 8 10km以上 24 57 1015
21 09:00 6 10km以上 22 60 1015
21 08:00 北東 5 10km以上 21 64 1015
21 07:00 北北東 4 10km以上 19 73 1016
21 06:10 南東 2 10km以上 16 88 1015
RJOM 221200Z 15003KT 9999 FEW030 SCT180 BKN/// 24/17 Q1012
RJOM 221100Z VRB01KT 9999 VCSH FEW030 SCT140 BKN170 25/18 Q1011
RJOM 221000Z VRB02KT 9999 FEW035 SCT150 BKN/// 25/17 Q1011
RJOM 220900Z 07007KT 050V110 9999 FEW035 SCT180 BKN/// 25/17 Q1011
RJOM 220800Z 03008KT 010V090 9999 FEW030 SCT140 BKN/// 26/17 Q1011
RJOM 220700Z 36014KT 9999 FEW030 SCT140 BKN/// 26/18 Q1012
RJOM 220600Z 36016KT 9999 FEW030 SCT150 BKN/// 27/18 Q1012
RJOM 220500Z 36018KT 9999 FEW030 BKN/// 27/19 Q1011
RJOM 220400Z 36016KT 9999 FEW030 SCT/// 28/17 Q1012
RJOM 220300Z 35012KT 9999 FEW030 28/17 Q1013
RJOM 220200Z 35009KT 9999 FEW025 BKN/// 27/16 Q1013
RJOM 220100Z 32005KT 290V360 9999 FEW025 25/17 Q1014
RJOM 220000Z 29005KT 9999 FEW025 SCT/// 24/17 Q1014
RJOM 212300Z 13003KT 090V190 9999 FEW025 22/16 Q1014
RJOM 212200Z 13004KT 9999 FEW025 20/16 Q1015
RJOM 212110Z 12004KT 9999 FEW025 19/16 Q1015 RMK 1CU025 A2997
RJOM 211200Z 13005KT 9999 FEW030 21/15 Q1014
RJOM 211100Z 03003KT 9999 FEW030 23/14 Q1014
RJOM 211000Z 12008KT 9999 FEW030 SCT/// 23/14 Q1013
RJOM 210900Z 09005KT 060V130 9999 FEW035 BKN/// 24/13 Q1013
RJOM 210800Z 08006KT 9999 FEW030 BKN/// 26/09 Q1013
RJOM 210700Z 03011KT 9999 FEW025 BKN/// 26/09 Q1013
RJOM 210600Z 01014KT 9999 FEW030 BKN/// 26/12 Q1013
RJOM 210500Z 36016KT 9999 FEW030 SCT/// 26/14 Q1014
RJOM 210400Z 36019KT 9999 FEW030 26/16 Q1014
RJOM 210300Z 36016KT 9999 FEW030 26/16 Q1014
RJOM 210200Z 01014KT 9999 FEW030 25/15 Q1014
RJOM 210100Z 01015KT 9999 FEW030 24/15 Q1015
RJOM 210000Z 01012KT 9999 FEW025 22/14 Q1015
RJOM 202300Z 04009KT 9999 FEW025 21/14 Q1015
RJOM 202200Z 03008KT 9999 FEW030 19/14 Q1016
RJOM 202110Z 13004KT 9999 FEW030 16/14 Q1015 RMK 1CU030 A2999